Time;durP1;ratioP1;P1;durP2;ratioP2;P2;SDS_P1;SDS_P2;PMS_P1;PMS_P2;Temp;Humidity;BMP_temperature;BMP_pressure;BME280_temperature;BME280_humidity;BME280_pressure;Samples;Min_cycle;Max_cycle;Signal;HPM_P1;HPM_P2
2023/03/10 00:01:16;;;;;;;8.45;3.78;;;9.00;99.90;;;;;;5097390;28;20423;-68
2023/03/10 00:03:44;;;;;;;7.22;3.08;;;8.90;99.90;;;;;;5108184;28;20063;-68
2023/03/10 00:06:13;;;;;;;6.82;3.25;;;8.90;99.90;;;;;;5095077;28;20127;-68
2023/03/10 00:08:41;;;;;;;10.55;3.47;;;8.90;99.90;;;;;;5090647;28;20494;-67
2023/03/10 00:11:09;;;;;;;8.77;3.60;;;8.80;99.90;;;;;;5087970;28;20044;-65
2023/03/10 00:13:37;;;;;;;7.18;3.53;;;8.90;99.90;;;;;;5090614;28;20040;-66
2023/03/10 00:16:05;;;;;;;9.45;3.42;;;8.90;99.90;;;;;;5100988;28;20063;-67
2023/03/10 00:18:33;;;;;;;10.25;3.33;;;9.00;99.90;;;;;;5088275;28;20121;-66
2023/03/10 00:21:00;;;;;;;5.82;3.10;;;8.90;99.90;;;;;;5106491;28;20073;-66
2023/03/10 00:23:28;;;;;;;7.30;3.30;;;8.90;99.90;;;;;;5089285;28;20046;-67
2023/03/10 00:25:57;;;;;;;11.68;3.28;;;8.90;99.90;;;;;;5099950;28;20047;-63
2023/03/10 00:28:25;;;;;;;7.78;3.47;;;9.00;99.90;;;;;;5094262;28;20040;-67
2023/03/10 00:31:06;;;;;;;8.82;3.63;;;9.00;99.90;;;;;;5090179;28;20040;-66
2023/03/10 00:33:36;;;;;;;8.48;3.00;;;8.90;99.90;;;;;;5095691;28;20059;-63
2023/03/10 00:36:06;;;;;;;7.07;3.60;;;8.90;99.90;;;;;;5112740;28;20474;-65
2023/03/10 00:38:35;;;;;;;6.72;3.35;;;8.90;99.90;;;;;;5092329;28;20040;-64
2023/03/10 00:41:09;;;;;;;9.60;3.53;;;9.00;99.90;;;;;;5093111;28;20032;-66
2023/03/10 00:43:37;;;;;;;6.80;3.30;;;9.00;99.90;;;;;;5092251;28;20048;-66
2023/03/10 00:46:05;;;;;;;6.82;3.13;;;9.00;99.90;;;;;;5092410;28;20055;-68
2023/03/10 00:48:33;;;;;;;8.82;3.22;;;9.00;99.90;;;;;;5093221;28;20044;-67
2023/03/10 00:51:00;;;;;;;8.13;3.40;;;9.00;99.90;;;;;;5106000;28;20051;-67
2023/03/10 00:53:28;;;;;;;8.82;3.47;;;9.00;99.90;;;;;;5091904;28;20485;-66
2023/03/10 00:55:58;;;;;;;8.90;3.50;;;9.10;99.90;;;;;;5093343;28;20101;-64
2023/03/10 00:58:26;;;;;;;8.40;3.10;;;9.10;99.90;;;;;;5093551;28;20111;-66
2023/03/10 01:01:01;;;;;;;11.20;3.15;;;9.10;99.90;;;;;;5092601;28;20046;-64
2023/03/10 01:03:29;;;;;;;6.18;3.22;;;9.10;99.90;;;;;;5091953;28;20048;-67
2023/03/10 01:05:56;;;;;;;11.43;3.30;;;9.20;99.90;;;;;;5093328;28;20463;-68
2023/03/10 01:08:24;;;;;;;8.20;3.60;;;9.20;99.90;;;;;;5092507;28;20112;-67
2023/03/10 01:10:51;;;;;;;9.57;3.45;;;9.20;99.90;;;;;;5093473;28;20062;-66
2023/03/10 01:13:19;;;;;;;8.30;3.05;;;9.20;99.90;;;;;;5100733;28;20040;-66
2023/03/10 01:15:49;;;;;;;10.00;3.38;;;9.20;99.90;;;;;;5080469;28;20087;-64
2023/03/10 01:18:19;;;;;;;7.55;3.15;;;9.20;99.90;;;;;;5093290;28;20052;-66
2023/03/10 01:20:47;;;;;;;7.80;3.30;;;9.40;99.90;;;;;;5092123;28;20502;-66
2023/03/10 01:23:25;;;;;;;8.60;3.38;;;9.40;99.90;;;;;;5092885;28;20036;-66
2023/03/10 01:25:52;;;;;;;7.32;3.60;;;9.30;99.90;;;;;;5092912;28;20059;-67
2023/03/10 01:28:21;;;;;;;8.25;3.30;;;9.30;99.90;;;;;;5085982;28;20044;-66
2023/03/10 01:30:49;;;;;;;6.47;3.60;;;9.30;99.90;;;;;;5096491;28;20546;-67
2023/03/10 01:33:16;;;;;;;7.25;3.58;;;9.30;99.90;;;;;;5092809;28;20412;-67
2023/03/10 01:35:44;;;;;;;7.82;3.00;;;9.30;99.90;;;;;;5092668;28;20046;-64
2023/03/10 01:38:12;;;;;;;10.45;3.28;;;9.30;99.90;;;;;;5092980;28;20581;-64
2023/03/10 01:40:40;;;;;;;7.68;3.35;;;9.30;99.90;;;;;;5092462;28;20513;-66
2023/03/10 01:43:26;;;;;;;8.73;3.72;;;9.30;99.90;;;;;;5092471;28;20044;-64
2023/03/10 01:45:53;;;;;;;7.43;3.28;;;9.30;99.90;;;;;;5092524;28;20046;-66
2023/03/10 01:48:22;;;;;;;8.80;3.30;;;9.30;99.90;;;;;;5101906;28;20126;-67
2023/03/10 01:50:52;;;;;;;8.65;3.58;;;9.30;99.90;;;;;;5094184;28;20040;-66
2023/03/10 01:53:21;;;;;;;6.68;3.20;;;9.30;99.90;;;;;;5090130;28;20086;-67
2023/03/10 01:55:58;;;;;;;7.40;3.30;;;9.30;99.90;;;;;;5099773;28;20044;-67
2023/03/10 01:58:31;;;;;;;5.70;3.13;;;9.30;99.90;;;;;;5092567;28;20040;-67
2023/03/10 02:00:59;;;;;;;13.15;3.97;;;9.40;99.90;;;;;;5094033;28;20505;-68
2023/03/10 02:03:33;;;;;;;8.07;3.80;;;9.40;99.90;;;;;;5093470;28;20405;-67
2023/03/10 02:06:05;;;;;;;8.68;3.60;;;9.40;99.90;;;;;;5097452;28;20044;-67
2023/03/10 02:08:36;;;;;;;9.10;3.60;;;9.30;99.90;;;;;;5088861;28;20046;-67
2023/03/10 02:11:04;;;;;;;8.80;3.13;;;9.20;99.90;;;;;;5089862;28;20048;-68
2023/03/10 02:13:32;;;;;;;6.68;3.30;;;9.20;99.90;;;;;;5089203;28;20040;-64
2023/03/10 02:15:59;;;;;;;11.98;3.60;;;9.20;99.90;;;;;;5091810;28;20494;-67
2023/03/10 02:18:29;;;;;;;7.05;3.22;;;9.20;99.90;;;;;;5090734;28;20040;-67
2023/03/10 02:21:27;;;;;;;7.93;3.05;;;9.20;99.90;;;;;;5089097;28;20054;-68
2023/03/10 02:24:22;;;;;;;6.53;3.30;;;9.10;99.90;;;;;;5092052;28;20047;-67
2023/03/10 02:26:56;;;;;;;9.77;3.30;;;9.10;99.90;;;;;;5093931;28;20045;-66
2023/03/10 02:29:58;;;;;;;10.48;3.60;;;9.10;99.90;;;;;;5110325;28;20050;-67
2023/03/10 02:32:34;;;;;;;9.07;3.45;;;9.10;99.90;;;;;;5091887;28;20039;-67
2023/03/10 02:35:02;;;;;;;7.03;3.50;;;9.10;99.90;;;;;;5089638;28;20515;-68
2023/03/10 02:37:33;;;;;;;9.13;3.40;;;9.00;99.90;;;;;;5088800;28;20344;-67
2023/03/10 02:40:01;;;;;;;5.05;3.25;;;9.10;99.90;;;;;;5081185;28;20040;-68
2023/03/10 02:42:34;;;;;;;7.70;3.30;;;9.10;99.90;;;;;;5092614;28;20048;-68
2023/03/10 02:45:03;;;;;;;6.82;3.35;;;9.10;99.90;;;;;;5090303;28;20436;-68
2023/03/10 02:47:31;;;;;;;6.82;3.63;;;9.10;99.90;;;;;;5109299;28;20059;-67
2023/03/10 02:49:59;;;;;;;8.00;4.00;;;9.10;99.90;;;;;;5095549;28;20040;-68
2023/03/10 02:52:38;;;;;;;8.88;3.00;;;9.10;99.90;;;;;;5090945;28;20036;-67
2023/03/10 02:55:06;;;;;;;6.22;2.92;;;9.10;99.90;;;;;;5087422;28;20149;-67
2023/03/10 02:57:33;;;;;;;9.68;3.55;;;9.10;99.90;;;;;;5089597;28;20462;-68
2023/03/10 03:00:02;;;;;;;8.43;3.42;;;9.10;99.90;;;;;;5101920;28;20050;-67
2023/03/10 03:02:31;;;;;;;8.02;3.45;;;9.10;99.90;;;;;;5102270;28;20044;-69
2023/03/10 03:04:59;;;;;;;9.95;3.70;;;9.00;99.90;;;;;;5088655;28;20123;-68
2023/03/10 03:07:27;;;;;;;7.07;3.20;;;9.00;99.90;;;;;;5087942;28;20415;-67
2023/03/10 03:09:54;;;;;;;7.20;3.45;;;9.00;99.90;;;;;;5089047;28;20040;-67
2023/03/10 03:12:22;;;;;;;6.55;3.17;;;8.90;99.90;;;;;;5090053;28;20047;-67
2023/03/10 03:14:49;;;;;;;8.00;3.08;;;8.90;99.90;;;;;;5089228;28;20043;-67
2023/03/10 03:17:16;;;;;;;10.32;3.58;;;8.90;99.90;;;;;;5087711;28;20068;-67
2023/03/10 03:19:43;;;;;;;8.10;3.50;;;8.90;99.90;;;;;;5097779;28;20040;-67
2023/03/10 03:22:11;;;;;;;4.07;2.90;;;8.90;99.90;;;;;;5090640;28;20462;-68
2023/03/10 03:24:38;;;;;;;7.35;3.47;;;8.90;99.90;;;;;;5089318;28;20042;-68
2023/03/10 03:27:05;;;;;;;7.53;3.70;;;8.90;99.90;;;;;;5109474;28;20505;-68
2023/03/10 03:29:33;;;;;;;10.70;3.47;;;8.90;99.90;;;;;;5107570;28;20036;-67
2023/03/10 03:32:00;;;;;;;7.13;3.67;;;8.90;99.90;;;;;;5109140;28;20511;-67
2023/03/10 03:34:31;;;;;;;8.18;3.75;;;8.80;99.90;;;;;;5105063;28;20497;-67
2023/03/10 03:37:02;;;;;;;5.57;3.53;;;8.80;99.90;;;;;;5088053;28;20513;-65
2023/03/10 03:39:33;;;;;;;10.18;4.05;;;8.80;99.90;;;;;;5087826;28;20070;-68
2023/03/10 03:42:04;;;;;;;6.30;3.30;;;8.70;99.90;;;;;;5088944;28;20460;-67
2023/03/10 03:44:42;;;;;;;11.07;3.78;;;8.80;99.90;;;;;;5088357;28;20223;-67
2023/03/10 03:47:10;;;;;;;5.97;3.40;;;8.70;99.90;;;;;;5087926;28;20032;-67
2023/03/10 03:49:38;;;;;;;11.05;3.35;;;8.70;99.90;;;;;;5089677;28;20046;-67
2023/03/10 03:52:06;;;;;;;9.30;3.60;;;8.60;99.90;;;;;;5087512;28;20075;-67
2023/03/10 03:54:34;;;;;;;9.60;3.60;;;8.60;99.90;;;;;;5088852;28;20131;-64
2023/03/10 03:57:02;;;;;;;8.95;3.95;;;8.60;99.90;;;;;;5087166;28;20413;-67
2023/03/10 03:59:29;;;;;;;9.50;3.67;;;8.50;99.90;;;;;;5088890;28;20495;-65
2023/03/10 04:01:57;;;;;;;9.23;3.55;;;8.50;99.90;;;;;;5103001;28;20040;-65
2023/03/10 04:04:25;;;;;;;5.43;3.10;;;8.50;99.90;;;;;;5109420;28;20692;-67
2023/03/10 04:06:53;;;;;;;9.05;3.42;;;8.40;99.90;;;;;;5091564;28;20081;-67
2023/03/10 04:09:21;;;;;;;9.18;3.95;;;8.40;99.90;;;;;;5075647;28;20513;-66
2023/03/10 04:11:48;;;;;;;12.15;4.07;;;8.50;99.90;;;;;;5104213;28;20484;-66
2023/03/10 04:14:16;;;;;;;10.48;4.38;;;8.40;99.90;;;;;;5113817;28;20096;-66
2023/03/10 04:16:43;;;;;;;11.55;4.00;;;8.40;99.90;;;;;;5113429;28;20035;-67
2023/03/10 04:19:11;;;;;;;11.70;5.03;;;8.40;99.90;;;;;;5112571;28;20044;-64
2023/03/10 04:21:42;;;;;;;8.35;4.65;;;8.40;99.90;;;;;;5102535;28;20050;-67
2023/03/10 04:24:10;;;;;;;7.72;4.38;;;8.40;99.90;;;;;;5092257;28;20044;-67
2023/03/10 04:26:37;;;;;;;10.88;4.97;;;8.40;99.90;;;;;;5090515;28;20048;-67
2023/03/10 04:29:05;;;;;;;6.47;4.82;;;8.40;99.90;;;;;;5092317;28;20077;-67
2023/03/10 04:31:34;;;;;;;10.45;5.05;;;8.40;99.90;;;;;;5092906;28;20473;-67
2023/03/10 04:34:02;;;;;;;9.77;5.25;;;8.40;99.90;;;;;;5076567;28;20040;-67
2023/03/10 04:36:30;;;;;;;8.63;5.32;;;8.50;99.90;;;;;;5091472;28;20086;-67
2023/03/10 04:39:00;;;;;;;7.10;4.15;;;8.60;99.90;;;;;;5090870;28;20533;-67
2023/03/10 04:41:30;;;;;;;10.30;4.60;;;8.50;99.90;;;;;;5092195;28;20029;-67
2023/03/10 04:43:58;;;;;;;12.48;4.45;;;8.50;99.90;;;;;;5091588;28;20064;-67
2023/03/10 04:46:25;;;;;;;5.57;2.95;;;8.50;99.90;;;;;;5090317;28;20562;-67
2023/03/10 04:48:54;;;;;;;7.00;3.13;;;8.60;99.90;;;;;;5090706;28;20119;-68
2023/03/10 04:51:22;;;;;;;5.82;3.15;;;8.60;99.90;;;;;;5093351;28;20040;-67
2023/03/10 04:53:51;;;;;;;5.13;2.78;;;8.60;99.90;;;;;;5090652;28;20040;-68
2023/03/10 04:56:19;;;;;;;7.57;3.03;;;8.60;99.90;;;;;;5090552;28;20119;-67
2023/03/10 04:58:47;;;;;;;6.88;2.63;;;8.60;99.90;;;;;;5095205;28;20073;-67
2023/03/10 05:01:15;;;;;;;4.72;2.40;;;8.70;99.90;;;;;;5111324;28;20540;-65
2023/03/10 05:04:00;;;;;;;4.35;2.03;;;8.80;99.90;;;;;;5097222;28;20513;-68
2023/03/10 05:06:28;;;;;;;3.33;2.03;;;8.80;99.90;;;;;;5098416;28;20089;-67
2023/03/10 05:09:22;;;;;;;5.05;2.42;;;8.80;99.90;;;;;;5099987;28;20130;-67
2023/03/10 05:11:49;;;;;;;6.13;2.28;;;8.90;99.90;;;;;;5101116;28;20036;-66
2023/03/10 05:14:17;;;;;;;4.70;2.20;;;9.00;99.90;;;;;;5094627;28;20047;-66
2023/03/10 05:16:47;;;;;;;4.97;2.10;;;9.10;99.90;;;;;;5109117;27;20505;-68
2023/03/10 05:19:14;;;;;;;5.38;2.13;;;9.10;99.90;;;;;;5079608;28;20040;-67
2023/03/10 05:21:42;;;;;;;5.75;2.42;;;9.00;99.90;;;;;;5091298;28;20100;-67
2023/03/10 05:24:09;;;;;;;5.75;2.35;;;9.10;99.90;;;;;;5097519;28;20082;-65
2023/03/10 05:26:37;;;;;;;5.68;2.65;;;9.10;99.90;;;;;;5091204;28;20040;-65
2023/03/10 05:29:04;;;;;;;6.13;3.08;;;9.10;99.90;;;;;;5089544;28;20044;-65
2023/03/10 05:31:55;;;;;;;7.00;2.90;;;9.10;99.90;;;;;;5091977;28;20062;-67
2023/03/10 05:34:29;;;;;;;6.47;2.85;;;9.20;99.90;;;;;;5087308;28;20172;-67
2023/03/10 05:36:59;;;;;;;6.97;2.90;;;9.10;99.90;;;;;;5111268;28;20090;-68
2023/03/10 05:39:27;;;;;;;6.57;3.00;;;9.10;99.90;;;;;;5096439;28;20040;-66
2023/03/10 05:41:56;;;;;;;8.55;2.70;;;9.10;99.90;;;;;;5091721;28;20476;-68
2023/03/10 05:44:27;;;;;;;6.90;3.28;;;9.00;99.90;;;;;;5089581;28;20047;-68
2023/03/10 05:46:54;;;;;;;6.97;3.30;;;9.10;99.90;;;;;;5090171;28;20043;-66
2023/03/10 05:49:22;;;;;;;9.05;4.07;;;9.00;99.90;;;;;;5100522;28;20035;-67
2023/03/10 05:51:51;;;;;;;9.93;3.20;;;8.90;99.90;;;;;;5111524;28;20453;-67
2023/03/10 05:54:19;;;;;;;7.10;3.30;;;8.90;99.90;;;;;;5107095;28;20493;-67
2023/03/10 05:56:46;;;;;;;5.28;2.88;;;8.90;99.90;;;;;;5090628;28;20040;-64
2023/03/10 05:59:14;;;;;;;7.95;2.72;;;8.80;99.90;;;;;;5093005;28;20134;-68
2023/03/10 06:01:41;;;;;;;9.80;3.05;;;8.80;99.90;;;;;;5100951;28;20051;-64
2023/03/10 06:04:09;;;;;;;6.93;2.88;;;8.80;99.90;;;;;;5094598;28;20101;-69
2023/03/10 06:06:37;;;;;;;5.13;2.80;;;8.80;99.90;;;;;;5100683;28;20135;-69
2023/03/10 06:09:04;;;;;;;8.57;3.10;;;8.80;99.90;;;;;;5092229;28;20048;-68
2023/03/10 06:11:32;;;;;;;6.90;2.70;;;8.80;99.90;;;;;;5092310;28;20097;-68
2023/03/10 06:13:59;;;;;;;9.00;3.30;;;8.80;99.90;;;;;;5091904;28;20035;-68
2023/03/10 06:16:26;;;;;;;7.40;3.17;;;8.80;99.90;;;;;;5096930;28;20043;-68
2023/03/10 06:18:55;;;;;;;7.05;3.05;;;8.80;99.90;;;;;;5092893;28;20040;-68
2023/03/10 06:21:24;;;;;;;8.55;2.45;;;8.90;99.90;;;;;;5092999;28;20465;-69
2023/03/10 06:23:51;;;;;;;4.65;2.47;;;8.90;99.90;;;;;;5097561;28;20058;-67
2023/03/10 06:26:18;;;;;;;6.38;2.05;;;9.00;99.90;;;;;;5099659;28;20406;-68
2023/03/10 06:28:46;;;;;;;7.00;1.98;;;9.10;99.90;;;;;;5090891;28;20055;-69
2023/03/10 06:31:18;;;;;;;4.90;2.10;;;9.10;99.90;;;;;;5092302;28;20121;-68
2023/03/10 06:33:46;;;;;;;5.82;2.10;;;9.20;99.90;;;;;;5100683;28;20058;-67
2023/03/10 06:36:14;;;;;;;4.38;1.88;;;9.20;99.90;;;;;;5090509;28;20070;-68
2023/03/10 06:38:42;;;;;;;4.93;2.20;;;9.40;99.90;;;;;;5094869;28;20044;-68
2023/03/10 06:41:09;;;;;;;4.25;1.63;;;9.40;99.90;;;;;;5091991;28;20119;-68
2023/03/10 06:43:37;;;;;;;5.13;2.10;;;9.40;99.90;;;;;;5090696;28;20044;-67
2023/03/10 06:46:07;;;;;;;3.25;1.75;;;9.50;99.90;;;;;;5093466;28;20396;-68
2023/03/10 06:48:36;;;;;;;4.35;1.77;;;9.50;99.90;;;;;;5090264;28;20563;-67
2023/03/10 06:51:09;;;;;;;5.15;1.73;;;9.60;99.90;;;;;;5093700;28;20448;-64
2023/03/10 06:53:36;;;;;;;7.75;1.70;;;9.60;99.90;;;;;;5098116;28;20071;-64
2023/03/10 06:56:12;;;;;;;5.68;1.73;;;9.60;99.90;;;;;;5105594;28;20523;-66
2023/03/10 06:58:40;;;;;;;3.95;1.88;;;9.70;99.90;;;;;;5097409;28;20047;-66
2023/03/10 07:01:18;;;;;;;5.10;1.77;;;9.70;99.90;;;;;;5091328;28;20435;-67
2023/03/10 07:03:45;;;;;;;3.00;1.85;;;9.60;99.90;;;;;;5100702;28;20589;-66
2023/03/10 07:06:13;;;;;;;3.83;1.95;;;9.70;99.90;;;;;;5098272;28;20044;-64
2023/03/10 07:08:40;;;;;;;6.90;3.78;;;9.70;99.90;;;;;;5101655;28;20044;-65
2023/03/10 07:11:08;;;;;;;8.95;4.82;;;9.70;99.90;;;;;;5102797;28;20050;-66
2023/03/10 07:13:35;;;;;;;4.45;2.10;;;9.80;99.90;;;;;;5098766;28;20531;-67
2023/03/10 07:16:03;;;;;;;4.05;1.98;;;9.80;99.90;;;;;;5088533;28;20697;-66
2023/03/10 07:18:31;;;;;;;3.90;2.20;;;9.80;99.90;;;;;;5090510;28;20055;-67
2023/03/10 07:20:59;;;;;;;5.45;2.00;;;9.80;99.90;;;;;;5090474;28;20508;-67
2023/03/10 07:23:26;;;;;;;4.75;1.75;;;10.00;99.90;;;;;;5091746;28;20486;-66
2023/03/10 07:25:55;;;;;;;3.70;1.60;;;10.00;99.90;;;;;;5092602;28;20493;-67
2023/03/10 07:28:24;;;;;;;3.15;1.60;;;10.10;99.90;;;;;;5089584;28;20044;-67
2023/03/10 07:30:52;;;;;;;3.00;1.63;;;10.10;99.90;;;;;;5096111;28;20036;-64
2023/03/10 07:33:19;;;;;;;3.83;1.50;;;10.10;99.90;;;;;;5096231;28;20578;-67
2023/03/10 07:35:47;;;;;;;4.22;1.40;;;10.20;99.90;;;;;;5092172;28;20115;-66
2023/03/10 07:38:14;;;;;;;4.22;2.00;;;10.20;99.90;;;;;;5093667;28;20131;-66
2023/03/10 07:40:42;;;;;;;6.25;1.70;;;10.20;99.90;;;;;;5093714;28;20178;-66
2023/03/10 07:43:09;;;;;;;4.03;1.60;;;10.20;99.90;;;;;;5092616;28;20463;-67
2023/03/10 07:45:37;;;;;;;4.50;1.60;;;10.20;99.90;;;;;;5094572;28;20119;-67
2023/03/10 07:48:05;;;;;;;4.07;1.85;;;10.20;99.90;;;;;;5093248;28;20626;-67
2023/03/10 07:50:32;;;;;;;3.60;1.73;;;10.30;99.90;;;;;;5097033;28;20047;-65
2023/03/10 07:52:59;;;;;;;5.13;1.52;;;10.40;99.90;;;;;;5093073;28;20352;-66
2023/03/10 07:55:27;;;;;;;6.82;1.88;;;10.50;99.90;;;;;;5098378;28;20123;-69
2023/03/10 07:57:56;;;;;;;2.30;1.60;;;10.70;99.90;;;;;;5097655;28;20044;-67
2023/03/10 08:00:23;;;;;;;2.83;1.60;;;10.70;99.90;;;;;;5099533;28;20036;-67
2023/03/10 08:02:51;;;;;;;5.35;2.00;;;10.80;99.90;;;;;;5104565;28;20055;-67
2023/03/10 08:05:18;;;;;;;2.72;1.75;;;10.70;99.90;;;;;;5093225;28;20524;-64
2023/03/10 08:07:45;;;;;;;7.38;4.25;;;10.80;99.90;;;;;;5093486;28;20110;-67
2023/03/10 08:10:13;;;;;;;4.13;1.50;;;10.90;99.90;;;;;;5112384;28;20040;-68
2023/03/10 08:12:40;;;;;;;3.65;1.70;;;10.90;99.90;;;;;;5111599;28;20039;-66
2023/03/10 08:15:09;;;;;;;3.97;1.55;;;10.90;99.90;;;;;;5102619;28;20076;-66
2023/03/10 08:17:37;;;;;;;2.85;1.50;;;10.90;99.90;;;;;;5113281;28;20425;-67
2023/03/10 08:20:05;;;;;;;4.85;1.75;;;10.90;99.90;;;;;;5103445;28;20062;-68
2023/03/10 08:22:32;;;;;;;3.60;1.60;;;11.10;99.90;;;;;;5094887;28;20094;-67
2023/03/10 08:25:00;;;;;;;7.22;2.10;;;11.00;99.90;;;;;;5092422;28;20033;-67
2023/03/10 08:27:28;;;;;;;4.22;1.83;;;11.10;99.90;;;;;;5093248;28;20055;-66
2023/03/10 08:29:56;;;;;;;2.08;1.33;;;11.10;99.90;;;;;;5098900;28;20038;-67
2023/03/10 08:32:23;;;;;;;4.28;1.52;;;11.10;99.90;;;;;;5092664;28;20409;-67
2023/03/10 08:34:50;;;;;;;2.60;1.50;;;11.20;99.90;;;;;;5093624;28;20405;-66
2023/03/10 08:37:18;;;;;;;2.72;1.63;;;11.20;99.90;;;;;;5091833;28;20740;-67
2023/03/10 08:39:45;;;;;;;5.53;1.50;;;11.30;99.90;;;;;;5091574;28;20050;-66
2023/03/10 08:42:13;;;;;;;2.65;1.40;;;11.40;99.90;;;;;;5092818;28;20052;-67
2023/03/10 08:44:40;;;;;;;3.83;1.67;;;11.50;99.90;;;;;;5090524;28;20059;-67
2023/03/10 08:47:07;;;;;;;3.28;1.77;;;11.40;99.90;;;;;;5093204;28;20553;-67
2023/03/10 08:49:35;;;;;;;2.80;1.42;;;11.50;99.90;;;;;;5099920;28;20048;-66
2023/03/10 08:52:03;;;;;;;3.20;1.55;;;11.70;99.90;;;;;;5111609;28;20485;-67
2023/03/10 08:54:30;;;;;;;4.65;1.85;;;11.60;99.90;;;;;;5103161;28;20066;-66
2023/03/10 08:56:59;;;;;;;5.70;2.00;;;11.70;99.90;;;;;;5091519;28;20070;-67
2023/03/10 08:59:26;;;;;;;6.30;2.17;;;11.60;99.90;;;;;;5091464;28;20470;-67
2023/03/10 09:01:53;;;;;;;4.40;2.03;;;11.60;99.90;;;;;;5092064;28;20071;-67
2023/03/10 09:04:21;;;;;;;4.20;2.00;;;11.70;99.90;;;;;;5094699;28;20037;-66
2023/03/10 09:06:48;;;;;;;5.93;2.22;;;11.60;99.90;;;;;;5092223;28;20048;-67
2023/03/10 09:09:16;;;;;;;4.43;1.60;;;11.70;99.90;;;;;;5091480;28;20471;-68
2023/03/10 09:11:44;;;;;;;4.25;1.83;;;11.60;99.90;;;;;;5092696;28;20078;-68
2023/03/10 09:14:15;;;;;;;5.10;1.83;;;11.40;99.90;;;;;;5102040;28;20513;-68
2023/03/10 09:16:43;;;;;;;6.65;2.10;;;11.50;99.90;;;;;;5103489;28;20039;-67
2023/03/10 09:19:11;;;;;;;6.10;2.10;;;11.50;99.90;;;;;;5106707;28;20089;-66
2023/03/10 09:21:38;;;;;;;4.10;1.80;;;11.50;99.90;;;;;;5102191;28;20084;-67
2023/03/10 09:24:05;;;;;;;3.30;1.70;;;11.70;99.90;;;;;;5112306;28;20048;-67
2023/03/10 09:26:33;;;;;;;5.07;2.28;;;11.90;99.90;;;;;;5111103;28;20346;-69
2023/03/10 09:29:02;;;;;;;3.45;1.70;;;12.00;99.90;;;;;;5111801;28;20073;-68
2023/03/10 09:31:31;;;;;;;2.47;1.60;;;11.90;99.90;;;;;;5100987;28;20491;-69
2023/03/10 09:34:00;;;;;;;4.30;1.65;;;12.20;99.90;;;;;;5097629;28;20386;-67
2023/03/10 09:36:28;;;;;;;5.60;1.98;;;12.30;99.90;;;;;;5091111;28;20058;-67
2023/03/10 09:38:59;;;;;;;2.28;1.40;;;12.60;99.90;;;;;;5092167;28;20028;-67
2023/03/10 09:41:36;;;;;;;4.80;2.27;;;12.50;99.90;;;;;;5091878;28;20411;-65
2023/03/10 09:44:29;;;;;;;4.65;1.60;;;12.70;99.90;;;;;;5102686;28;20290;-67
2023/03/10 09:47:32;;;;;;;1.48;1.38;;;12.80;99.90;;;;;;5091161;28;20134;-68
2023/03/10 09:50:37;;;;;;;;;;;13.00;99.90;;;;;;5092060;28;20048;-65
2023/03/10 09:53:18;;;;;;;2.80;1.90;;;13.00;99.90;;;;;;5021385;28;19929;-66
2023/03/10 09:55:45;;;;;;;3.53;2.13;;;13.20;99.90;;;;;;5042580;28;20502;-68
2023/03/10 09:58:53;;;;;;;2.60;1.60;;;13.50;99.90;;;;;;5032729;28;20056;-67
2023/03/10 10:01:24;;;;;;;4.70;1.58;;;13.60;99.90;;;;;;4988242;28;20042;-67
2023/03/10 10:03:55;;;;;;;3.03;1.70;;;13.70;99.90;;;;;;4988608;28;20042;-65
2023/03/10 10:06:35;;;;;;;2.17;1.60;;;13.80;99.90;;;;;;4972847;28;20123;-67
2023/03/10 10:09:09;;;;;;;3.90;1.70;;;13.70;99.90;;;;;;4988988;28;20097;-67
2023/03/10 10:11:36;;;;;;;2.97;1.65;;;13.50;99.90;;;;;;4987262;28;20046;-67
2023/03/10 10:14:18;;;;;;;3.63;2.10;;;13.40;99.90;;;;;;4988416;28;20050;-67
2023/03/10 10:17:05;;;;;;;2.85;1.98;;;12.90;99.90;;;;;;4988671;28;20077;-67
2023/03/10 10:19:33;;;;;;;4.13;1.77;;;12.40;99.90;;;;;;4988336;28;20050;-67
2023/03/10 10:22:33;;;;;;;2.70;1.58;;;12.10;99.90;;;;;;4988691;28;20074;-65
2023/03/10 10:25:08;;;;;;;4.10;1.50;;;11.40;99.90;;;;;;5042890;28;20609;-65
2023/03/10 10:27:41;;;;;;;3.85;1.70;;;10.90;99.90;;;;;;5058701;28;20399;-67
2023/03/10 10:30:36;;;;;;;2.90;1.40;;;10.50;99.90;;;;;;5051663;28;20060;-67
2023/03/10 10:33:12;;;;;;;2.63;1.20;;;10.30;99.90;;;;;;5055649;28;20052;-66
2023/03/10 10:35:57;;;;;;;2.60;1.40;;;10.20;99.90;;;;;;5069117;28;20848;-66
2023/03/10 10:38:30;;;;;;;3.58;1.30;;;10.10;99.90;;;;;;5096236;28;20123;-65
2023/03/10 10:41:08;;;;;;;4.35;1.67;;;9.90;99.90;;;;;;5106112;28;20032;-66
2023/03/10 10:43:43;;;;;;;2.33;1.30;;;9.90;99.90;;;;;;5090091;28;20123;-64
2023/03/10 10:46:14;;;;;;;3.05;1.40;;;9.80;99.90;;;;;;5090043;28;20040;-66
2023/03/10 10:48:43;;;;;;;1.58;1.05;;;9.80;99.90;;;;;;5094043;28;20047;-64
2023/03/10 10:51:20;;;;;;;1.90;1.10;;;9.70;99.90;;;;;;5108735;28;20561;-65
2023/03/10 10:53:48;;;;;;;3.10;1.20;;;9.60;99.90;;;;;;5107690;28;20059;-64
2023/03/10 10:56:17;;;;;;;1.95;1.13;;;9.60;99.90;;;;;;5090551;28;20040;-65
2023/03/10 10:59:04;;;;;;;1.88;1.20;;;9.50;99.90;;;;;;5088735;28;20040;-66
2023/03/10 11:01:52;;;;;;;2.42;1.20;;;9.50;99.90;;;;;;5089104;28;20097;-65
2023/03/10 11:04:22;;;;;;;3.53;1.15;;;9.60;99.90;;;;;;5089737;28;20529;-68
2023/03/10 11:06:50;;;;;;;2.38;1.20;;;9.80;99.90;;;;;;5088953;28;20047;-66
2023/03/10 11:09:22;;;;;;;2.20;1.30;;;10.20;99.90;;;;;;5092536;28;20047;-65
2023/03/10 11:11:58;;;;;;;;;;;10.50;99.90;;;;;;5109461;28;20047;-66
2023/03/10 11:14:36;;;;;;;2.67;1.30;;;10.90;99.90;;;;;;5093737;28;19946;-65
2023/03/10 11:17:09;;;;;;;2.67;1.50;;;11.20;99.90;;;;;;5091996;28;20113;-67
2023/03/10 11:19:57;;;;;;;6.32;1.52;;;11.00;99.90;;;;;;5089460;28;20051;-66
2023/03/10 11:22:45;;;;;;;5.63;1.75;;;11.00;99.90;;;;;;5094933;28;20453;-67
2023/03/10 11:25:28;;;;;;;5.60;1.73;;;11.10;99.90;;;;;;5090106;28;20100;-65
2023/03/10 11:28:14;;;;;;;4.05;1.50;;;11.00;99.90;;;;;;5091438;28;20143;-66
2023/03/10 11:30:59;;;;;;;5.28;1.60;;;11.00;99.90;;;;;;5089491;28;20048;-66
2023/03/10 11:33:37;;;;;;;7.72;2.00;;;11.20;99.90;;;;;;5094502;28;20040;-65
2023/03/10 11:36:29;;;;;;;3.85;1.70;;;11.60;99.90;;;;;;5095820;28;20405;-66
2023/03/10 11:39:13;;;;;;;7.53;3.35;;;11.60;99.90;;;;;;5096387;28;20032;-64
2023/03/10 11:41:47;;;;;;;6.50;1.90;;;11.70;99.90;;;;;;5100245;28;20058;-66
2023/03/10 11:44:37;;;;;;;5.68;1.85;;;12.10;99.90;;;;;;5100621;28;20043;-66
2023/03/10 11:47:33;;;;;;;5.93;1.70;;;12.60;99.90;;;;;;5094778;28;20516;-66
2023/03/10 11:50:20;;;;;;;7.10;1.83;;;13.00;99.90;;;;;;5090408;28;20114;-66
2023/03/10 11:52:49;;;;;;;5.50;2.00;;;13.10;99.90;;;;;;5090437;28;20048;-66
2023/03/10 11:55:21;;;;;;;5.20;2.00;;;12.80;99.90;;;;;;5089152;28;20413;-67
2023/03/10 11:57:51;;;;;;;;;;;12.80;99.90;;;;;;5090615;28;20103;-67
2023/03/10 12:00:31;;;;;;;2.97;1.67;;;12.90;99.90;;;;;;5089813;28;19924;-67
2023/03/10 12:03:20;;;;;;;4.28;1.90;;;13.10;99.90;;;;;;5090698;28;20085;-67
2023/03/10 12:05:56;;;;;;;4.70;1.80;;;13.10;99.90;;;;;;5088829;28;20139;-67
2023/03/10 12:08:28;;;;;;;6.50;1.85;;;12.80;99.90;;;;;;5090694;28;20048;-66
2023/03/10 12:10:58;;;;;;;4.40;1.70;;;12.50;99.90;;;;;;5094429;28;20043;-65
2023/03/10 12:13:33;;;;;;;3.80;1.88;;;12.20;99.90;;;;;;5096581;28;20043;-66
2023/03/10 12:16:03;;;;;;;3.55;1.90;;;12.20;99.90;;;;;;5092826;28;20063;-68
2023/03/10 12:18:30;;;;;;;4.50;1.98;;;12.30;99.90;;;;;;5098975;28;20066;-66
2023/03/10 12:21:18;;;;;;;5.32;1.95;;;12.10;99.90;;;;;;5090169;28;20066;-67
2023/03/10 12:23:51;;;;;;;4.07;1.80;;;12.10;99.90;;;;;;5089998;28;20048;-67
2023/03/10 12:26:37;;;;;;;4.40;1.60;;;12.00;99.90;;;;;;5089791;28;20047;-66
2023/03/10 12:29:19;;;;;;;3.40;1.60;;;12.10;99.90;;;;;;5095291;28;20032;-65
2023/03/10 12:31:52;;;;;;;3.03;1.60;;;12.00;99.90;;;;;;5096832;28;20515;-67
2023/03/10 12:34:22;;;;;;;3.33;1.70;;;11.90;99.90;;;;;;5096939;28;20036;-65
2023/03/10 12:37:05;;;;;;;3.53;1.70;;;11.90;99.90;;;;;;5094838;28;20478;-67
2023/03/10 12:39:41;;;;;;;2.90;1.70;;;12.10;99.90;;;;;;5093494;28;20036;-66
2023/03/10 12:42:27;;;;;;;4.80;1.80;;;12.20;99.90;;;;;;5093785;28;20040;-66
2023/03/10 12:45:20;;;;;;;4.07;1.75;;;12.60;99.90;;;;;;5093838;28;20406;-66
2023/03/10 12:48:02;;;;;;;4.68;1.83;;;12.70;99.90;;;;;;5096074;28;20181;-65
2023/03/10 12:50:35;;;;;;;2.95;1.30;;;12.70;99.90;;;;;;5093423;28;20043;-65
2023/03/10 12:53:31;;;;;;;2.78;1.63;;;12.50;99.90;;;;;;5093487;28;20091;-65
2023/03/10 12:56:11;;;;;;;1.65;1.25;;;12.20;99.90;;;;;;5075044;28;20061;-64
2023/03/10 12:58:43;;;;;;;1.30;1.20;;;11.90;99.90;;;;;;5093019;28;20044;-65
2023/03/10 13:01:16;;;;;;;2.00;1.50;;;11.80;99.90;;;;;;5101909;28;20080;-67
2023/03/10 13:03:50;;;;;;;1.67;1.30;;;11.60;99.90;;;;;;5097820;28;20419;-66
2023/03/10 13:06:32;;;;;;;1.90;1.27;;;11.60;99.90;;;;;;5092056;28;20105;-66
2023/03/10 13:09:23;;;;;;;2.50;1.42;;;12.00;99.90;;;;;;5092284;28;20391;-68
2023/03/10 13:12:02;;;;;;;1.75;1.40;;;12.10;99.90;;;;;;5093147;28;20071;-67
2023/03/10 13:14:37;;;;;;;1.45;1.33;;;12.00;99.90;;;;;;5092749;28;20051;-65
2023/03/10 13:17:08;;;;;;;1.98;1.40;;;12.70;99.90;;;;;;5094539;28;20044;-65